Time;durP1;ratioP1;P1;durP2;ratioP2;P2;SDS_P1;SDS_P2;PMS_P1;PMS_P2;Temp;Humidity;BMP_temperature;BMP_pressure;BME280_temperature;BME280_humidity;BME280_pressure;Samples;Min_cycle;Max_cycle;Signal;HPM_P1;HPM_P2
2023/03/19 00:02:10;;;;;;;10.20;9.10;;;9.30;99.90;;;;;;5049796;28;20705;-48
2023/03/19 00:04:37;;;;;;;10.00;9.00;;;9.30;99.90;;;;;;5034583;28;20200;-48
2023/03/19 00:07:04;;;;;;;12.73;9.93;;;9.30;99.90;;;;;;5053108;28;20909;-50
2023/03/19 00:09:31;;;;;;;9.17;8.27;;;9.20;99.90;;;;;;5041963;28;20196;-47
2023/03/19 00:11:58;;;;;;;10.77;8.03;;;9.20;99.90;;;;;;5031242;28;20223;-48
2023/03/19 00:14:25;;;;;;;12.37;8.20;;;9.20;99.90;;;;;;5035627;28;20699;-48
2023/03/19 00:16:53;;;;;;;8.67;7.83;;;9.10;99.90;;;;;;5043540;28;20277;-49
2023/03/19 00:19:21;;;;;;;13.73;8.87;;;9.10;99.90;;;;;;5048920;28;20206;-47
2023/03/19 00:21:48;;;;;;;9.67;7.87;;;9.20;99.90;;;;;;5041730;28;20234;-48
2023/03/19 00:24:16;;;;;;;8.30;7.13;;;9.20;99.90;;;;;;5030725;28;20209;-48
2023/03/19 00:26:43;;;;;;;8.10;7.30;;;9.20;99.90;;;;;;5032538;28;20202;-48
2023/03/19 00:29:11;;;;;;;14.77;8.33;;;9.20;99.90;;;;;;5029355;28;20253;-48
2023/03/19 00:31:39;;;;;;;7.93;6.90;;;9.10;99.90;;;;;;5031971;28;20219;-49
2023/03/19 00:34:09;;;;;;;11.83;8.10;;;9.10;99.90;;;;;;5032361;28;20703;-48
2023/03/19 00:36:36;;;;;;;13.43;8.40;;;9.10;99.90;;;;;;5040397;28;20295;-48
2023/03/19 00:39:03;;;;;;;12.10;7.93;;;9.10;99.90;;;;;;5032176;28;20264;-47
2023/03/19 00:41:31;;;;;;;9.57;8.13;;;9.10;99.90;;;;;;5032253;28;20277;-49
2023/03/19 00:43:58;;;;;;;9.67;7.50;;;9.10;99.90;;;;;;5034639;28;20201;-49
2023/03/19 00:46:26;;;;;;;10.43;8.57;;;9.20;99.90;;;;;;5034412;28;20200;-46
2023/03/19 00:48:54;;;;;;;12.77;8.43;;;9.30;99.90;;;;;;5034251;28;20191;-47
2023/03/19 00:51:23;;;;;;;9.77;7.00;;;9.40;99.90;;;;;;5051768;28;20317;-48
2023/03/19 00:53:51;;;;;;;7.80;7.03;;;9.30;99.90;;;;;;5052072;28;20254;-48
2023/03/19 00:56:18;;;;;;;8.83;8.03;;;9.20;99.90;;;;;;5052147;28;20226;-48
2023/03/19 00:58:46;;;;;;;9.27;8.30;;;9.20;99.90;;;;;;5041108;28;20281;-47
2023/03/19 01:01:15;;;;;;;9.40;7.00;;;9.20;99.90;;;;;;5038407;28;20244;-48
2023/03/19 01:03:42;;;;;;;9.90;7.83;;;9.20;99.90;;;;;;5040382;28;20204;-47
2023/03/19 01:06:10;;;;;;;11.00;7.90;;;9.20;99.90;;;;;;5036373;28;20243;-48
2023/03/19 01:08:38;;;;;;;9.80;7.33;;;9.20;99.90;;;;;;5038840;28;20206;-48
2023/03/19 01:11:07;;;;;;;12.67;8.33;;;9.20;99.90;;;;;;5034678;28;20206;-48
2023/03/19 01:13:34;;;;;;;9.00;7.10;;;9.20;99.90;;;;;;5033119;28;20203;-48
2023/03/19 01:16:01;;;;;;;9.47;7.83;;;9.10;99.90;;;;;;5035705;28;20196;-48
2023/03/19 01:18:28;;;;;;;9.63;8.47;;;9.10;99.90;;;;;;5040716;28;20220;-48
2023/03/19 01:20:55;;;;;;;11.07;8.33;;;9.10;99.90;;;;;;5042502;28;20747;-49
2023/03/19 01:23:22;;;;;;;10.63;8.00;;;9.20;99.90;;;;;;5051576;28;20208;-47
2023/03/19 01:25:51;;;;;;;10.83;8.47;;;9.20;99.90;;;;;;5034646;28;20200;-47
2023/03/19 01:28:18;;;;;;;11.43;9.07;;;9.20;99.90;;;;;;5037832;28;20199;-49
2023/03/19 01:30:45;;;;;;;8.90;7.47;;;9.20;99.90;;;;;;5033154;28;20204;-47
2023/03/19 01:33:12;;;;;;;10.00;8.80;;;9.10;99.90;;;;;;5036228;28;20221;-48
2023/03/19 01:35:39;;;;;;;12.80;8.70;;;9.10;99.90;;;;;;5043291;28;20204;-48
2023/03/19 01:38:06;;;;;;;14.27;8.80;;;9.00;99.90;;;;;;5040504;28;20232;-48
2023/03/19 01:40:33;;;;;;;9.17;7.80;;;9.00;99.90;;;;;;5033784;28;20551;-49
2023/03/19 01:43:17;;;;;;;9.93;8.40;;;8.90;99.90;;;;;;5038695;28;20222;-49
2023/03/19 01:45:45;;;;;;;9.07;8.17;;;8.90;99.90;;;;;;5049621;28;20258;-48
2023/03/19 01:48:28;;;;;;;7.73;7.03;;;8.80;99.90;;;;;;5051394;28;20193;-47
2023/03/19 01:50:56;;;;;;;8.80;7.90;;;8.80;99.90;;;;;;5029683;28;20283;-48
2023/03/19 01:53:26;;;;;;;9.97;8.97;;;8.80;99.90;;;;;;5031550;28;20270;-48
2023/03/19 01:55:57;;;;;;;7.97;7.23;;;8.80;99.90;;;;;;5030753;28;20262;-47
2023/03/19 01:58:25;;;;;;;8.43;7.47;;;8.70;99.90;;;;;;5039344;28;20696;-48
2023/03/19 02:00:52;;;;;;;11.60;8.30;;;8.70;99.90;;;;;;5038616;28;20225;-48
2023/03/19 02:03:21;;;;;;;10.47;8.77;;;8.70;99.90;;;;;;5027803;28;20214;-48
2023/03/19 02:05:50;;;;;;;7.77;7.07;;;8.70;99.90;;;;;;5040422;28;20203;-47
2023/03/19 02:08:21;;;;;;;8.80;7.77;;;8.70;99.90;;;;;;5038638;28;20292;-48
2023/03/19 02:10:50;;;;;;;9.00;8.07;;;8.70;99.90;;;;;;5049772;28;20200;-49
2023/03/19 02:13:17;;;;;;;10.00;7.70;;;8.90;99.90;;;;;;5051097;28;20223;-47
2023/03/19 02:15:46;;;;;;;8.67;7.73;;;8.90;99.90;;;;;;5041095;28;20298;-48
2023/03/19 02:18:13;;;;;;;9.80;7.57;;;8.90;99.90;;;;;;5044889;28;20216;-47
2023/03/19 02:20:49;;;;;;;15.40;9.53;;;8.90;99.90;;;;;;5054785;28;20206;-48
2023/03/19 02:23:27;;;;;;;10.67;8.17;;;8.80;99.90;;;;;;5040936;28;20598;-47
2023/03/19 02:26:07;;;;;;;9.90;7.90;;;8.80;99.90;;;;;;5039343;28;20231;-48
2023/03/19 02:28:38;;;;;;;11.40;8.20;;;8.70;99.90;;;;;;5039927;28;20193;-48
2023/03/19 02:31:05;;;;;;;8.63;7.87;;;8.70;99.90;;;;;;5054462;28;20204;-50
2023/03/19 02:33:32;;;;;;;8.47;7.70;;;8.70;99.90;;;;;;5054697;28;20207;-48
2023/03/19 02:36:02;;;;;;;9.47;7.83;;;8.70;99.90;;;;;;5051261;28;20231;-46
2023/03/19 02:38:32;;;;;;;60.60;25.17;;;8.70;99.90;;;;;;5031170;28;20220;-48
2023/03/19 02:41:03;;;;;;;23.67;13.13;;;8.80;99.90;;;;;;5034250;28;20274;-48
2023/03/19 02:43:32;;;;;;;14.47;9.77;;;8.80;99.90;;;;;;5042525;28;20577;-48
2023/03/19 02:46:00;;;;;;;29.57;14.87;;;8.80;99.90;;;;;;5034310;28;20205;-47
2023/03/19 02:48:27;;;;;;;16.23;10.37;;;8.70;99.90;;;;;;5030561;28;20625;-48
2023/03/19 02:50:54;;;;;;;11.00;9.47;;;8.80;99.90;;;;;;5033172;28;20258;-48
2023/03/19 02:53:21;;;;;;;11.53;8.57;;;8.80;99.90;;;;;;5030540;28;20204;-48
2023/03/19 02:55:48;;;;;;;13.80;10.40;;;8.80;99.90;;;;;;5044705;28;20196;-47
2023/03/19 02:58:15;;;;;;;11.57;8.90;;;8.80;99.90;;;;;;5043613;28;20215;-49
2023/03/19 03:00:44;;;;;;;11.03;8.47;;;8.80;99.90;;;;;;5045599;28;20258;-47
2023/03/19 03:03:12;;;;;;;12.60;9.43;;;8.80;99.90;;;;;;5035587;28;20863;-47
2023/03/19 03:05:39;;;;;;;12.00;8.90;;;8.80;99.90;;;;;;5033387;28;20210;-48
2023/03/19 03:08:06;;;;;;;9.10;8.17;;;8.80;99.90;;;;;;5041033;28;20247;-47
2023/03/19 03:10:33;;;;;;;17.27;8.70;;;8.90;99.90;;;;;;5034173;28;20209;-48
2023/03/19 03:13:01;;;;;;;11.77;8.37;;;9.00;99.90;;;;;;5033823;28;20632;-47
2023/03/19 03:15:28;;;;;;;8.97;8.03;;;9.00;99.90;;;;;;5032105;28;20247;-48
2023/03/19 03:18:00;;;;;;;9.63;8.00;;;9.10;99.90;;;;;;5031841;28;20243;-47
2023/03/19 03:20:28;;;;;;;11.83;8.50;;;9.00;99.90;;;;;;5042370;28;20303;-47
2023/03/19 03:22:55;;;;;;;10.23;8.10;;;9.00;99.90;;;;;;5033625;28;20231;-48
2023/03/19 03:25:22;;;;;;;10.83;7.47;;;9.00;99.90;;;;;;5033837;28;20205;-47
2023/03/19 03:27:49;;;;;;;8.73;7.77;;;9.00;99.90;;;;;;5034770;28;20573;-47
2023/03/19 03:30:17;;;;;;;8.90;7.47;;;8.90;99.90;;;;;;5031124;28;20206;-48
2023/03/19 03:32:44;;;;;;;7.40;6.40;;;8.90;99.90;;;;;;5043956;28;20227;-47
2023/03/19 03:35:17;;;;;;;7.60;6.60;;;8.90;99.90;;;;;;5047316;28;20200;-49
2023/03/19 03:37:44;;;;;;;11.40;6.57;;;8.90;99.90;;;;;;5045193;28;20249;-48
2023/03/19 03:40:13;;;;;;;10.17;6.27;;;9.00;99.90;;;;;;5031372;28;20670;-47
2023/03/19 03:42:40;;;;;;;7.37;5.93;;;9.10;99.90;;;;;;5038589;28;20223;-46
2023/03/19 03:45:09;;;;;;;6.40;5.80;;;9.10;99.90;;;;;;5036296;28;20199;-48
2023/03/19 03:47:36;;;;;;;10.20;6.43;;;9.00;99.90;;;;;;5041459;28;20195;-48
2023/03/19 03:50:04;;;;;;;10.10;7.50;;;8.90;99.90;;;;;;5042723;28;20247;-47
2023/03/19 03:52:33;;;;;;;8.27;7.07;;;8.90;99.90;;;;;;5048664;28;20353;-47
2023/03/19 03:55:00;;;;;;;8.27;7.03;;;8.80;99.90;;;;;;5051654;28;20207;-46
2023/03/19 03:57:27;;;;;;;7.33;6.60;;;8.80;99.90;;;;;;5040265;28;20203;-47
2023/03/19 03:59:54;;;;;;;8.93;7.30;;;8.80;99.90;;;;;;5032280;28;20291;-47
2023/03/19 04:02:22;;;;;;;10.67;6.73;;;8.80;99.90;;;;;;5039778;28;20268;-47
2023/03/19 04:04:49;;;;;;;8.03;5.90;;;8.80;99.90;;;;;;5051750;28;20571;-48
2023/03/19 04:07:16;;;;;;;6.60;5.90;;;8.80;99.90;;;;;;5040112;28;20209;-47
2023/03/19 04:09:44;;;;;;;6.53;5.63;;;8.80;99.90;;;;;;5050633;28;20245;-49
2023/03/19 04:12:12;;;;;;;6.93;6.17;;;8.80;99.90;;;;;;5052683;28;20221;-47
2023/03/19 04:14:39;;;;;;;6.27;5.50;;;8.80;99.90;;;;;;5046203;28;20230;-48
2023/03/19 04:17:06;;;;;;;6.70;5.97;;;8.80;99.90;;;;;;5042559;28;20261;-47
2023/03/19 04:19:33;;;;;;;7.03;6.40;;;8.70;99.90;;;;;;5034012;28;20226;-48
2023/03/19 04:22:02;;;;;;;7.23;5.70;;;8.80;99.90;;;;;;5039595;28;20220;-48
2023/03/19 04:24:30;;;;;;;7.47;5.97;;;8.80;99.90;;;;;;5048417;28;20208;-48
2023/03/19 04:26:58;;;;;;;6.03;5.43;;;8.80;99.90;;;;;;5048201;28;20243;-48
2023/03/19 04:29:26;;;;;;;6.20;5.63;;;8.90;99.90;;;;;;5040071;28;20234;-48
2023/03/19 04:31:53;;;;;;;7.10;6.50;;;8.90;99.90;;;;;;5041974;28;20232;-48
2023/03/19 04:34:20;;;;;;;7.77;6.30;;;8.90;99.90;;;;;;5043538;28;20255;-51
2023/03/19 04:36:47;;;;;;;7.87;5.97;;;8.90;99.90;;;;;;5033416;28;20262;-48
2023/03/19 04:39:14;;;;;;;7.43;6.40;;;8.90;99.90;;;;;;5034519;28;20274;-49
2023/03/19 04:41:42;;;;;;;6.47;5.80;;;8.90;99.90;;;;;;5037035;28;20219;-47
2023/03/19 04:44:10;;;;;;;7.67;5.73;;;8.90;99.90;;;;;;5038230;28;20207;-48
2023/03/19 04:46:37;;;;;;;6.83;6.00;;;8.90;99.90;;;;;;5049268;28;20211;-49
2023/03/19 04:49:04;;;;;;;7.13;6.43;;;8.90;99.90;;;;;;5043486;28;20291;-47
2023/03/19 04:51:32;;;;;;;6.30;5.67;;;8.90;99.90;;;;;;5037657;28;20294;-47
2023/03/19 04:53:59;;;;;;;8.30;6.27;;;8.90;99.90;;;;;;5034060;28;20200;-47
2023/03/19 04:56:26;;;;;;;7.67;6.27;;;8.90;99.90;;;;;;5040214;28;20279;-48
2023/03/19 04:58:53;;;;;;;8.80;6.50;;;8.90;99.90;;;;;;5037698;28;20303;-48
2023/03/19 05:01:21;;;;;;;6.50;5.73;;;8.90;99.90;;;;;;5046670;28;20295;-48
2023/03/19 05:03:48;;;;;;;7.67;6.33;;;8.90;99.90;;;;;;5051903;28;20250;-47
2023/03/19 05:06:18;;;;;;;7.57;5.53;;;9.00;99.90;;;;;;5050200;28;20207;-48
2023/03/19 05:08:45;;;;;;;6.70;6.10;;;9.00;99.90;;;;;;5031747;28;20658;-47
2023/03/19 05:11:13;;;;;;;5.77;5.17;;;8.90;99.90;;;;;;5029630;28;20270;-48
2023/03/19 05:13:40;;;;;;;15.93;7.37;;;8.90;99.90;;;;;;5031312;28;20236;-48
2023/03/19 05:16:08;;;;;;;19.37;11.67;;;8.90;99.90;;;;;;5031999;28;20208;-47
2023/03/19 05:18:36;;;;;;;20.67;10.87;;;8.90;99.90;;;;;;5037897;28;20727;-47
2023/03/19 05:21:04;;;;;;;9.33;8.23;;;8.90;99.90;;;;;;5046289;28;20208;-48
2023/03/19 05:23:31;;;;;;;11.50;8.60;;;9.00;99.90;;;;;;5047901;28;20206;-48
2023/03/19 05:25:59;;;;;;;9.87;7.47;;;9.00;99.90;;;;;;5036507;28;20204;-47
2023/03/19 05:28:27;;;;;;;10.67;7.37;;;9.00;99.90;;;;;;5037972;28;20687;-48
2023/03/19 05:30:54;;;;;;;12.43;8.07;;;9.00;99.90;;;;;;5051543;28;20329;-48
2023/03/19 05:33:21;;;;;;;9.83;8.07;;;9.00;99.90;;;;;;5039901;28;20336;-48
2023/03/19 05:35:49;;;;;;;7.93;7.17;;;9.00;99.90;;;;;;5036574;28;20295;-48
2023/03/19 05:38:17;;;;;;;7.93;6.93;;;9.00;99.90;;;;;;5031318;28;20199;-47
2023/03/19 05:40:44;;;;;;;10.50;8.47;;;8.90;99.90;;;;;;5039086;28;20206;-48
2023/03/19 05:43:11;;;;;;;9.37;8.33;;;9.10;99.90;;;;;;5034213;28;20225;-48
2023/03/19 05:45:39;;;;;;;13.23;8.60;;;9.00;99.90;;;;;;5031626;28;20207;-48
2023/03/19 05:48:06;;;;;;;11.87;8.40;;;9.00;99.90;;;;;;5032365;28;20291;-47
2023/03/19 05:50:33;;;;;;;11.37;8.33;;;9.00;99.90;;;;;;5028157;28;20239;-47
2023/03/19 05:53:02;;;;;;;11.87;8.60;;;9.00;99.90;;;;;;5027137;28;20659;-48
2023/03/19 05:55:29;;;;;;;12.83;6.70;;;9.00;99.90;;;;;;5034934;28;20244;-48
2023/03/19 05:57:59;;;;;;;7.47;6.77;;;8.90;99.90;;;;;;5035325;28;20199;-48
2023/03/19 06:00:26;;;;;;;7.87;6.57;;;8.90;99.90;;;;;;5034793;28;20744;-48
2023/03/19 06:03:01;;;;;;;5.83;5.33;;;9.10;99.90;;;;;;5034217;28;20313;-47
2023/03/19 06:05:28;;;;;;;9.37;5.87;;;9.10;99.90;;;;;;5031924;28;20214;-46
2023/03/19 06:07:58;;;;;;;6.47;5.53;;;9.10;99.90;;;;;;5015359;28;20683;-47
2023/03/19 06:10:27;;;;;;;8.80;7.30;;;9.20;99.90;;;;;;5034496;28;20200;-48
2023/03/19 06:12:57;;;;;;;7.60;6.60;;;9.40;99.90;;;;;;5036355;28;20223;-48
2023/03/19 06:15:25;;;;;;;8.53;7.47;;;9.40;99.90;;;;;;5041337;28;20200;-48
2023/03/19 06:17:56;;;;;;;8.40;6.63;;;9.40;99.90;;;;;;5042707;28;20733;-47
2023/03/19 06:20:23;;;;;;;10.07;7.20;;;9.40;99.90;;;;;;5041512;28;20217;-47
2023/03/19 06:22:50;;;;;;;5.93;4.83;;;9.50;99.90;;;;;;5053689;28;20644;-48
2023/03/19 06:25:17;;;;;;;6.03;5.10;;;9.50;99.90;;;;;;5046099;28;20205;-48
2023/03/19 06:27:46;;;;;;;8.27;4.90;;;9.40;99.90;;;;;;5034644;28;20205;-46
2023/03/19 06:30:14;;;;;;;8.03;5.37;;;9.40;99.90;;;;;;5034669;28;20666;-48
2023/03/19 06:32:41;;;;;;;3.83;3.37;;;9.40;99.90;;;;;;5034559;28;20222;-49
2023/03/19 06:35:09;;;;;;;4.27;3.63;;;9.40;99.90;;;;;;5034771;28;20195;-48
2023/03/19 06:37:36;;;;;;;3.53;3.33;;;9.40;99.90;;;;;;5025480;28;20206;-47
2023/03/19 06:40:05;;;;;;;5.50;3.63;;;9.40;99.90;;;;;;5035568;28;20213;-47
2023/03/19 06:42:32;;;;;;;3.93;3.03;;;9.40;99.90;;;;;;5043610;28;20224;-48
2023/03/19 06:45:00;;;;;;;3.50;3.20;;;9.40;99.90;;;;;;5034071;28;20207;-47
2023/03/19 06:47:27;;;;;;;4.17;3.63;;;9.50;99.90;;;;;;5039860;28;20685;-48
2023/03/19 06:49:55;;;;;;;3.67;2.70;;;9.60;99.90;;;;;;5032484;28;20266;-48
2023/03/19 06:52:22;;;;;;;4.20;3.10;;;9.70;99.90;;;;;;5027029;28;20608;-49
2023/03/19 06:54:49;;;;;;;3.70;3.37;;;9.70;99.90;;;;;;5032214;28;20232;-46
2023/03/19 06:57:16;;;;;;;3.50;3.23;;;9.70;99.90;;;;;;5042770;28;20204;-48
2023/03/19 06:59:43;;;;;;;6.67;3.40;;;9.80;99.90;;;;;;5044626;28;20224;-47
2023/03/19 07:02:12;;;;;;;5.07;3.47;;;9.90;99.90;;;;;;5030094;28;20278;-47
2023/03/19 07:04:40;;;;;;;5.20;2.87;;;10.10;99.90;;;;;;5038692;28;20208;-47
2023/03/19 07:07:07;;;;;;;3.53;3.10;;;10.20;99.90;;;;;;5027848;28;20584;-46
2023/03/19 07:09:34;;;;;;;3.90;3.60;;;10.40;99.90;;;;;;5026085;28;20230;-47
2023/03/19 07:12:01;;;;;;;5.83;3.37;;;10.60;99.90;;;;;;5024486;28;20228;-48
2023/03/19 07:14:28;;;;;;;5.70;3.73;;;10.80;99.90;;;;;;5021982;28;20200;-48
2023/03/19 07:16:55;;;;;;;4.33;3.93;;;11.00;99.90;;;;;;5024088;28;20209;-46
2023/03/19 07:19:24;;;;;;;4.80;4.37;;;11.10;99.90;;;;;;5029149;28;20229;-48
2023/03/19 07:21:51;;;;;;;11.40;8.40;;;11.30;99.90;;;;;;5031871;28;20363;-47
2023/03/19 07:24:18;;;;;;;12.00;8.40;;;11.50;99.90;;;;;;5035175;28;20204;-48
2023/03/19 07:26:46;;;;;;;9.60;6.90;;;11.70;99.90;;;;;;5026756;28;20265;-46
2023/03/19 07:29:14;;;;;;;7.27;6.00;;;11.70;99.90;;;;;;5023019;28;20212;-47
2023/03/19 07:31:41;;;;;;;7.17;5.37;;;11.80;99.90;;;;;;5030254;28;20251;-47
2023/03/19 07:34:08;;;;;;;6.17;4.93;;;12.00;99.90;;;;;;5042892;28;20214;-48
2023/03/19 07:36:36;;;;;;;6.77;4.87;;;12.20;99.90;;;;;;5024610;28;20225;-48
2023/03/19 07:39:04;;;;;;;7.50;4.80;;;12.50;99.90;;;;;;5028529;28;20291;-46
2023/03/19 07:41:31;;;;;;;3.93;3.53;;;12.70;99.90;;;;;;5030906;28;20226;-47
2023/03/19 07:43:58;;;;;;;5.33;4.50;;;12.90;99.90;;;;;;5024838;28;20201;-48
2023/03/19 07:46:25;;;;;;;4.40;4.10;;;13.10;99.90;;;;;;5023870;28;20264;-48
2023/03/19 07:48:52;;;;;;;4.93;4.53;;;13.20;99.90;;;;;;5033895;28;20204;-47
2023/03/19 07:51:19;;;;;;;4.70;4.20;;;13.60;99.90;;;;;;5030971;28;20232;-49
2023/03/19 07:53:48;;;;;;;5.53;4.97;;;14.10;99.90;;;;;;5041705;28;20213;-47
2023/03/19 07:56:15;;;;;;;5.27;4.77;;;14.30;99.90;;;;;;5046948;28;20697;-47
2023/03/19 07:58:42;;;;;;;4.97;4.57;;;14.50;99.90;;;;;;5035709;28;20206;-47
2023/03/19 08:01:11;;;;;;;6.28;5.68;;;14.70;99.90;;;;;;5035528;28;20530;-48
2023/03/19 08:03:39;;;;;;;5.07;4.57;;;14.80;99.90;;;;;;5035001;28;20194;-48
2023/03/19 08:06:06;;;;;;;5.23;4.63;;;14.90;99.90;;;;;;5036120;28;20247;-48
2023/03/19 08:08:33;;;;;;;5.47;4.77;;;15.00;99.90;;;;;;5038461;28;20248;-48
2023/03/19 08:11:02;;;;;;;4.67;4.27;;;15.10;99.90;;;;;;5043916;28;20189;-48
2023/03/19 08:13:30;;;;;;;5.57;4.77;;;15.30;99.90;;;;;;5049198;28;20354;-48
2023/03/19 08:15:57;;;;;;;4.80;4.40;;;15.30;99.90;;;;;;5038697;28;20689;-48
2023/03/19 08:18:24;;;;;;;4.67;4.20;;;15.40;99.90;;;;;;5023676;28;20838;-49
2023/03/19 08:20:51;;;;;;;5.03;4.60;;;15.50;99.90;;;;;;5033338;28;20223;-48
2023/03/19 08:23:19;;;;;;;5.13;4.60;;;15.70;99.90;;;;;;5040189;28;20218;-48
2023/03/19 08:25:45;;;;;;;11.13;4.87;;;15.70;99.90;;;;;;5030403;28;20252;-47
2023/03/19 08:28:14;;;;;;;4.70;3.93;;;15.40;99.90;;;;;;5038705;28;20252;-47
2023/03/19 08:30:41;;;;;;;4.20;3.83;;;15.50;99.90;;;;;;5030121;28;20253;-47
2023/03/19 08:33:08;;;;;;;5.70;4.17;;;15.50;99.90;;;;;;5034833;28;20226;-48
2023/03/19 08:35:35;;;;;;;5.70;4.30;;;15.50;99.90;;;;;;5033674;28;20256;-48
2023/03/19 08:38:04;;;;;;;5.87;4.63;;;16.10;99.90;;;;;;5040397;28;20258;-47
2023/03/19 08:40:34;;;;;;;5.33;4.83;;;16.70;99.90;;;;;;5030924;28;20225;-47
2023/03/19 08:43:02;;;;;;;5.97;5.37;;;17.10;99.90;;;;;;5024306;28;20246;-47
2023/03/19 08:45:34;;;;;;;4.43;4.13;;;18.10;99.90;;;;;;5021400;28;20205;-49
2023/03/19 08:48:05;;;;;;;4.87;4.47;;;18.50;99.90;;;;;;5020095;28;20206;-48
2023/03/19 08:50:33;;;;;;;4.87;3.90;;;19.20;99.90;;;;;;5026704;28;20195;-48
2023/03/19 08:53:04;;;;;;;7.43;5.67;;;20.10;99.90;;;;;;4999099;28;20993;-48
2023/03/19 08:55:32;;;;;;;5.13;4.73;;;20.40;99.90;;;;;;5001938;28;20298;-48
2023/03/19 08:58:04;;;;;;;9.50;5.00;;;20.80;99.90;;;;;;5003480;28;20578;-48
2023/03/19 09:00:34;;;;;;;6.23;5.10;;;21.20;99.90;;;;;;5013702;28;20226;-48
2023/03/19 09:03:05;;;;;;;4.40;4.00;;;22.00;99.90;;;;;;5003967;28;20751;-49
2023/03/19 09:05:33;;;;;;;3.40;3.10;;;22.60;98.50;;;;;;5025684;28;20252;-47
2023/03/19 09:08:05;;;;;;;4.20;3.90;;;22.80;97.50;;;;;;5028902;28;20203;-46
2023/03/19 09:10:33;;;;;;;6.07;4.53;;;23.30;95.70;;;;;;5026010;28;20676;-48
2023/03/19 09:13:04;;;;;;;4.63;3.53;;;23.80;95.40;;;;;;5023624;28;20254;-49
2023/03/19 09:15:41;;;;;;;3.80;3.40;;;23.30;93.90;;;;;;5027908;28;20210;-48
2023/03/19 09:18:10;;;;;;;4.10;3.80;;;21.40;95.50;;;;;;5036050;28;20210;-47
2023/03/19 09:20:38;;;;;;;3.43;3.23;;;20.80;97.50;;;;;;5030498;28;20236;-46
2023/03/19 09:23:06;;;;;;;3.13;2.93;;;19.80;97.10;;;;;;5020274;28;20232;-48
2023/03/19 09:25:35;;;;;;;4.53;2.27;;;19.90;97.30;;;;;;5016159;28;20230;-48
2023/03/19 09:28:03;;;;;;;2.60;2.40;;;20.50;94.80;;;;;;5024921;28;20872;-48
2023/03/19 09:30:35;;;;;;;2.93;2.73;;;21.30;95.60;;;;;;5025100;28;20673;-48
2023/03/19 09:33:04;;;;;;;2.77;2.57;;;22.30;93.90;;;;;;5023185;28;20238;-48
2023/03/19 09:35:34;;;;;;;3.07;2.90;;;22.70;92.30;;;;;;5021626;28;20294;-48
2023/03/19 09:38:05;;;;;;;2.30;2.10;;;22.60;91.50;;;;;;5026817;28;20206;-47
2023/03/19 09:40:37;;;;;;;1.90;1.80;;;22.70;91.70;;;;;;5025436;28;20692;-48
2023/03/19 09:43:21;;;;;;;2.43;2.00;;;23.30;90.80;;;;;;5030261;28;20217;-48
2023/03/19 09:45:55;;;;;;;2.60;2.40;;;23.70;90.30;;;;;;5042635;28;20202;-49
2023/03/19 09:48:36;;;;;;;2.20;2.10;;;23.70;88.00;;;;;;5040364;28;20195;-47
2023/03/19 09:51:12;;;;;;;3.23;2.47;;;23.50;86.40;;;;;;5034514;28;20289;-48
2023/03/19 09:53:47;;;;;;;1.87;1.77;;;23.10;86.10;;;;;;5034482;28;20212;-49
2023/03/19 09:56:18;;;;;;;2.90;1.83;;;23.00;86.50;;;;;;5035083;28;20205;-48
2023/03/19 09:58:46;;;;;;;2.23;2.03;;;22.50;88.30;;;;;;5033401;28;20293;-48
2023/03/19 10:01:26;;;;;;;2.53;1.70;;;22.20;86.80;;;;;;5042077;28;20316;-48
2023/03/19 10:04:13;;;;;;;2.47;2.07;;;22.20;87.70;;;;;;5033760;28;20703;-48
2023/03/19 10:06:40;;;;;;;3.27;1.87;;;21.80;87.50;;;;;;5036350;28;20202;-48
2023/03/19 10:09:32;;;;;;;2.03;1.93;;;21.60;88.00;;;;;;5042213;28;20209;-48
2023/03/19 10:12:10;;;;;;;1.73;1.43;;;21.00;88.70;;;;;;5043647;28;20727;-48
2023/03/19 10:15:01;;;;;;;2.30;1.53;;;21.30;89.00;;;;;;5033202;28;20264;-48
2023/03/19 10:17:33;;;;;;;1.93;1.83;;;21.00;89.00;;;;;;5033634;28;20203;-48
2023/03/19 10:20:05;;;;;;;2.53;1.83;;;21.00;91.00;;;;;;5027063;28;20316;-48
2023/03/19 10:22:38;;;;;;;1.23;1.20;;;21.30;90.70;;;;;;5033546;28;20688;-48
2023/03/19 10:25:10;;;;;;;1.50;1.40;;;21.40;90.40;;;;;;5032564;28;20202;-47
2023/03/19 10:27:38;;;;;;;2.33;1.33;;;20.70;88.40;;;;;;5041418;28;20789;-48
2023/03/19 10:30:14;;;;;;;2.30;1.80;;;20.90;88.40;;;;;;5029984;28;20244;-48
2023/03/19 10:32:46;;;;;;;2.07;1.50;;;20.30;89.10;;;;;;5028586;28;20872;-48
2023/03/19 10:35:19;;;;;;;2.63;1.70;;;20.00;91.60;;;;;;5028039;28;20665;-50
2023/03/19 10:37:48;;;;;;;2.30;1.50;;;19.30;90.70;;;;;;5027811;28;20198;-47
2023/03/19 10:40:24;;;;;;;1.70;1.60;;;18.80;91.00;;;;;;5024064;28;20778;-48
2023/03/19 10:43:06;;;;;;;3.17;1.90;;;18.80;91.40;;;;;;5032493;28;20233;-49
2023/03/19 10:45:35;;;;;;;2.23;1.47;;;18.80;91.40;;;;;;5019370;28;20211;-48
2023/03/19 10:48:05;;;;;;;1.87;1.10;;;18.90;91.90;;;;;;5027161;28;20667;-48
2023/03/19 10:50:36;;;;;;;1.40;1.30;;;19.00;95.10;;;;;;5045747;28;20190;-48
2023/03/19 10:53:07;;;;;;;2.50;1.27;;;19.30;93.20;;;;;;5053724;28;20306;-48
2023/03/19 10:55:34;;;;;;;1.13;1.13;;;19.40;92.20;;;;;;5054302;28;20206;-48
2023/03/19 10:58:05;;;;;;;1.37;1.37;;;19.20;92.00;;;;;;5053989;28;20202;-47
2023/03/19 11:00:34;;;;;;;2.77;1.37;;;19.10;92.50;;;;;;5052412;28;20264;-47
2023/03/19 11:03:04;;;;;;;1.80;1.40;;;19.20;91.80;;;;;;5040656;28;20692;-49
2023/03/19 11:05:32;;;;;;;1.73;1.63;;;18.90;92.10;;;;;;5050272;28;20202;-48
2023/03/19 11:08:02;;;;;;;1.57;1.27;;;18.80;91.80;;;;;;5054038;28;20198;-48
2023/03/19 11:10:32;;;;;;;2.80;1.37;;;18.60;92.20;;;;;;5053938;28;20260;-49
2023/03/19 11:13:04;;;;;;;3.20;1.90;;;18.60;92.40;;;;;;5053470;28;20225;-47
2023/03/19 11:15:36;;;;;;;3.20;2.80;;;18.50;92.10;;;;;;5053721;28;20202;-48
2023/03/19 11:18:16;;;;;;;2.53;1.93;;;18.40;92.10;;;;;;5053697;28;20747;-48
2023/03/19 11:20:48;;;;;;;1.43;1.30;;;18.50;92.50;;;;;;5044301;28;20221;-48
2023/03/19 11:23:17;;;;;;;1.83;1.30;;;18.50;92.00;;;;;;5033726;28;20719;-48
2023/03/19 11:25:50;;;;;;;3.90;1.97;;;18.50;91.50;;;;;;5033651;28;20257;-48
2023/03/19 11:28:20;;;;;;;1.77;1.60;;;18.60;91.30;;;;;;5033567;28;20680;-49
2023/03/19 11:30:56;;;;;;;3.13;1.83;;;18.60;91.60;;;;;;5033565;28;20672;-48
2023/03/19 11:33:43;;;;;;;2.10;1.77;;;18.50;92.30;;;;;;5033318;28;20256;-47
2023/03/19 11:36:13;;;;;;;2.37;1.97;;;18.40;92.50;;;;;;5037405;28;20267;-48
2023/03/19 11:38:50;;;;;;;2.77;1.77;;;18.30;93.30;;;;;;5044929;28;20198;-48
2023/03/19 11:41:29;;;;;;;3.70;1.77;;;17.90;94.20;;;;;;5053225;28;20644;-47
2023/03/19 11:44:02;;;;;;;3.23;1.40;;;17.80;94.00;;;;;;5053169;28;20201;-48
2023/03/19 11:46:43;;;;;;;3.53;1.60;;;17.70;92.70;;;;;;5053126;28;20263;-49
2023/03/19 11:49:36;;;;;;;3.73;2.23;;;17.80;92.70;;;;;;5053121;28;20297;-48
2023/03/19 11:52:17;;;;;;;3.87;2.57;;;17.70;92.30;;;;;;5048250;28;20245;-47
2023/03/19 11:54:57;;;;;;;1.23;1.23;;;18.00;92.50;;;;;;5042776;28;20252;-48
2023/03/19 11:57:34;;;;;;;1.67;1.60;;;17.90;92.70;;;;;;5053160;28;20263;-48
2023/03/19 12:00:21;;;;;;;2.00;1.90;;;18.00;92.40;;;;;;5053063;28;20627;-48
2023/03/19 12:03:33;;;;;;;1.67;1.57;;;18.20;91.80;;;;;;5052552;28;20230;-49
2023/03/19 12:06:12;;;;;;;2.00;1.80;;;18.20;94.50;;;;;;5052586;28;20208;-48
2023/03/19 12:08:45;;;;;;;2.50;1.67;;;18.10;93.40;;;;;;5052575;28;20252;-48
2023/03/19 12:11:19;;;;;;;1.40;1.23;;;18.20;93.50;;;;;;5040687;28;20198;-48
2023/03/19 12:14:02;;;;;;;2.27;1.30;;;18.10;92.30;;;;;;5050750;28;20750;-48
2023/03/19 12:16:38;;;;;;;2.57;1.53;;;18.10;92.10;;;;;;5052751;28;20675;-48
2023/03/19 12:19:33;;;;;;;2.07;1.70;;;18.10;91.40;;;;;;5052535;28;20255;-48
2023/03/19 12:22:11;;;;;;;2.73;1.87;;;18.00;91.00;;;;;;5052106;28;20351;-48
2023/03/19 12:24:51;;;;;;;3.13;2.30;;;17.90;91.00;;;;;;5046975;28;20206;-49
2023/03/19 12:27:27;;;;;;;1.80;1.70;;;17.90;91.20;;;;;;5046925;28;20201;-47
2023/03/19 12:30:01;;;;;;;4.70;1.40;;;17.80;91.40;;;;;;5052314;28;20675;-47
2023/03/19 12:32:45;;;;;;;1.70;1.60;;;17.70;92.60;;;;;;5051944;28;20222;-48
2023/03/19 12:35:15;;;;;;;1.30;1.20;;;17.50;91.30;;;;;;5052172;28;20213;-48
2023/03/19 12:37:49;;;;;;;1.80;1.40;;;17.50;92.60;;;;;;5050277;28;20202;-49
2023/03/19 12:40:26;;;;;;;1.27;1.27;;;17.70;93.00;;;;;;5040491;28;20218;-48
2023/03/19 12:43:02;;;;;;;1.27;1.00;;;17.80;94.70;;;;;;5051332;28;20607;-47
2023/03/19 12:45:34;;;;;;;1.27;1.17;;;17.40;95.50;;;;;;5052226;28;20205;-48
2023/03/19 12:48:08;;;;;;;1.33;1.30;;;17.40;95.70;;;;;;5052364;28;20587;-49
2023/03/19 12:50:39;;;;;;;1.43;1.30;;;17.30;95.80;;;;;;5051917;28;20212;-48
2023/03/19 12:53:14;;;;;;;2.10;1.70;;;17.40;95.80;;;;;;5051532;28;20782;-47
2023/03/19 12:55:45;;;;;;;1.97;1.80;;;17.40;95.70;;;;;;5036429;28;20209;-49
2023/03/19 12:58:20;;;;;;;3.03;1.30;;;17.10;95.60;;;;;;5045857;28;20201;-48
2023/03/19 13:00:53;;;;;;;2.00;1.43;;;16.60;95.60;;;;;;5048824;28;20752;-47
2023/03/19 13:03:27;;;;;;;1.37;1.10;;;16.40;96.60;;;;;;5031579;28;20317;-48
2023/03/19 13:05:59;;;;;;;1.27;0.90;;;16.30;96.70;;;;;;5031900;28;20224;-47